Terminal Aerodrome Forecast
Issued by NWS Chicago, IL

Home | Current Version | Previous Version | Graphics & Text | Print | Product List | Glossary On
Versions: 1 2 3 4 5 6 7 8 9 10 11 12 13 14 15 16 17 18 19 20 21 22 23 24 25 26 27 28 29 30 31 32
000
FTUS43 KLOT 181100
TAFRFD
TAF
KRFD 181130Z 1812/1912 28014G23KT P6SM -SHSN SCT020 SCT180
     FM182200 21010KT P6SM BKN050
     FM190900 19010KT 1 1/2SM -SN BKN015=

USA.gov is the U.S. government's official web portal to all federal, state and local government web resources and services.